Time;durP1;ratioP1;P1;durP2;ratioP2;P2;SDS_P1;SDS_P2;PMS_P1;PMS_P2;Temp;Humidity;BMP_temperature;BMP_pressure;BME280_temperature;BME280_humidity;BME280_pressure;Samples;Min_cycle;Max_cycle;Signal;HPM_P1;HPM_P2
2022/06/11 00:01:49;;;;;;;5.30;1.80;;;20.70;86.80;;;;;;4965338;28;20026;-79
2022/06/11 00:04:24;;;;;;;4.32;1.77;;;20.60;86.90;;;;;;4968024;28;20546;-78
2022/06/11 00:06:51;;;;;;;3.42;1.90;;;20.60;87.30;;;;;;4963464;28;20062;-78
2022/06/11 00:09:18;;;;;;;7.68;1.90;;;20.60;87.50;;;;;;4952045;28;20508;-79
2022/06/11 00:11:44;;;;;;;4.60;2.03;;;20.60;87.70;;;;;;4951195;28;20380;-78
2022/06/11 00:14:10;;;;;;;4.82;1.95;;;20.60;87.80;;;;;;4954289;28;20481;-78
2022/06/11 00:16:35;;;;;;;5.25;2.05;;;20.60;87.90;;;;;;4938672;28;20031;-78
2022/06/11 00:19:02;;;;;;;3.60;2.15;;;20.60;88.30;;;;;;4968264;28;20470;-78
2022/06/11 00:21:30;;;;;;;1.92;1.60;;;20.60;88.20;;;;;;4955126;28;20034;-78
2022/06/11 00:23:55;;;;;;;14.52;2.17;;;20.50;88.40;;;;;;4966005;28;20042;-78
2022/06/11 00:26:22;;;;;;;3.83;1.60;;;20.60;88.10;;;;;;4951264;28;20035;-78
2022/06/11 00:28:47;;;;;;;4.22;1.80;;;20.50;87.90;;;;;;4953354;28;20023;-78
2022/06/11 00:31:13;;;;;;;4.65;1.73;;;20.50;88.90;;;;;;4966717;28;20030;-78
2022/06/11 00:33:39;;;;;;;5.35;1.77;;;20.50;88.30;;;;;;4951339;28;20391;-78
2022/06/11 00:36:05;;;;;;;5.95;1.98;;;20.50;88.60;;;;;;4968913;28;20121;-78
2022/06/11 00:38:30;;;;;;;5.38;1.67;;;20.50;88.40;;;;;;4962764;28;20046;-79
2022/06/11 00:40:56;;;;;;;3.55;1.85;;;20.50;88.40;;;;;;4972841;28;20091;-78
2022/06/11 00:43:25;;;;;;;6.53;1.83;;;20.50;88.80;;;;;;4950526;28;20045;-78
2022/06/11 00:45:53;;;;;;;4.53;1.92;;;20.50;89.20;;;;;;4950753;28;20133;-78
2022/06/11 00:48:25;;;;;;;2.75;1.60;;;20.40;89.30;;;;;;4953206;28;20122;-78
2022/06/11 00:50:54;;;;;;;3.97;1.65;;;20.40;89.00;;;;;;4969899;28;20023;-78
2022/06/11 00:53:38;;;;;;;3.42;1.80;;;20.40;89.40;;;;;;4962276;28;20474;-78
2022/06/11 00:56:06;;;;;;;4.35;1.98;;;20.40;89.60;;;;;;4947510;28;20109;-78
2022/06/11 00:58:37;;;;;;;5.63;1.67;;;20.40;89.60;;;;;;4965259;28;20137;-78
2022/06/11 01:01:02;;;;;;;4.95;2.05;;;20.30;90.00;;;;;;4965661;28;20058;-78
2022/06/11 01:03:36;;;;;;;3.33;1.90;;;20.30;90.00;;;;;;4968300;28;20068;-78
2022/06/11 01:06:21;;;;;;;3.38;1.77;;;20.30;90.00;;;;;;4947589;28;20038;-78
2022/06/11 01:09:09;;;;;;;3.55;1.60;;;20.30;89.90;;;;;;4965257;28;20038;-78
2022/06/11 01:11:56;;;;;;;5.25;1.80;;;20.10;90.00;;;;;;4938547;28;20027;-78
2022/06/11 01:14:37;;;;;;;2.47;1.40;;;20.10;90.00;;;;;;4967363;28;20030;-78
2022/06/11 01:17:12;;;;;;;2.95;1.80;;;20.10;90.20;;;;;;4965487;28;20102;-78
2022/06/11 01:19:44;;;;;;;3.15;1.80;;;20.00;90.00;;;;;;4950451;28;20031;-78
2022/06/11 01:22:39;;;;;;;3.03;2.05;;;20.00;90.00;;;;;;4965274;28;20069;-78
2022/06/11 01:25:11;;;;;;;6.93;2.40;;;20.00;90.20;;;;;;4965121;28;20031;-78
2022/06/11 01:27:58;;;;;;;4.95;2.15;;;20.00;90.30;;;;;;4966160;28;20415;-78
2022/06/11 01:30:26;;;;;;;4.35;1.83;;;20.00;90.50;;;;;;4958722;28;20033;-78
2022/06/11 01:33:22;;;;;;;4.15;1.98;;;20.00;90.70;;;;;;4967631;28;20040;-78
2022/06/11 01:36:04;;;;;;;;;;;19.90;90.40;;;;;;4954746;28;20046;-78
2022/06/11 01:38:31;;;;;;;7.40;2.33;;;19.90;90.60;;;;;;4963398;28;19917;-79
2022/06/11 01:41:15;;;;;;;6.57;2.13;;;19.90;90.70;;;;;;4964817;28;20036;-79
2022/06/11 01:43:42;;;;;;;6.15;1.92;;;19.90;90.80;;;;;;4974700;28;20035;-79
2022/06/11 01:46:38;;;;;;;4.70;2.05;;;19.80;90.80;;;;;;4955063;28;20399;-79
2022/06/11 01:49:28;;;;;;;4.80;1.90;;;19.80;90.80;;;;;;4952486;28;20034;-78
2022/06/11 01:51:54;;;;;;;5.32;2.10;;;19.80;91.00;;;;;;4957062;28;20094;-78
2022/06/11 01:54:50;;;;;;;4.70;1.58;;;19.90;91.00;;;;;;4972596;28;20035;-78
2022/06/11 01:57:41;;;;;;;6.25;1.80;;;19.80;91.10;;;;;;4969213;28;20521;-78
2022/06/11 02:00:22;;;;;;;4.25;1.92;;;19.80;91.00;;;;;;4971814;28;20117;-78
2022/06/11 02:03:03;;;;;;;3.63;1.85;;;19.70;91.40;;;;;;4951906;28;20035;-78
2022/06/11 02:05:53;;;;;;;6.78;2.30;;;19.70;91.20;;;;;;4961577;28;20038;-78
2022/06/11 02:08:37;;;;;;;3.97;2.30;;;19.60;91.30;;;;;;4968806;28;20127;-78
2022/06/11 02:11:06;;;;;;;3.63;2.78;;;19.50;91.60;;;;;;4971757;28;20023;-78
2022/06/11 02:13:49;;;;;;;4.85;2.55;;;19.30;91.90;;;;;;4968501;28;20087;-78
2022/06/11 02:16:22;;;;;;;6.88;3.00;;;19.30;92.20;;;;;;4965614;28;20522;-78
2022/06/11 02:18:48;;;;;;;6.90;2.67;;;19.20;92.00;;;;;;4969634;28;20039;-78
2022/06/11 02:21:20;;;;;;;4.10;2.88;;;19.20;92.60;;;;;;4967745;28;20116;-78
2022/06/11 02:24:07;;;;;;;6.72;3.30;;;19.10;92.90;;;;;;4966714;28;20547;-78
2022/06/11 02:26:36;;;;;;;3.88;2.55;;;19.00;92.00;;;;;;4967288;28;20039;-78
2022/06/11 02:29:03;;;;;;;5.50;3.13;;;19.00;92.50;;;;;;4953923;28;20039;-78
2022/06/11 02:31:34;;;;;;;10.50;4.55;;;19.00;92.90;;;;;;4969599;28;20034;-78
2022/06/11 02:34:01;;;;;;;5.32;3.88;;;19.00;92.70;;;;;;4968077;28;20035;-78
2022/06/11 02:36:30;;;;;;;10.00;6.35;;;18.80;92.70;;;;;;4971569;28;20726;-78
2022/06/11 02:38:57;;;;;;;5.03;3.50;;;18.80;93.20;;;;;;4969131;28;20029;-79
2022/06/11 02:41:28;;;;;;;5.20;3.33;;;18.90;93.10;;;;;;4953295;28;20041;-78
2022/06/11 02:43:54;;;;;;;3.83;2.50;;;19.00;93.00;;;;;;4966166;28;20053;-79
2022/06/11 02:49:07;;;;;;;6.60;2.83;;;19.00;93.50;;;;;;4968116;28;20048;-78
2022/06/11 02:51:32;;;;;;;2.95;2.03;;;18.90;93.60;;;;;;4970726;28;20043;-79
2022/06/11 02:53:58;;;;;;;5.75;2.22;;;18.80;94.30;;;;;;4929233;28;20480;-79
2022/06/11 02:56:24;;;;;;;5.95;2.10;;;18.60;93.70;;;;;;4950406;28;20046;-78
2022/06/11 02:58:51;;;;;;;4.75;2.15;;;18.70;94.80;;;;;;4959065;28;20140;-79
2022/06/11 03:01:17;;;;;;;7.07;2.30;;;18.60;94.50;;;;;;4953208;28;20058;-79
2022/06/11 03:03:42;;;;;;;6.75;2.50;;;18.60;94.60;;;;;;4953308;28;20121;-78
2022/06/11 03:06:08;;;;;;;5.72;2.20;;;18.60;94.80;;;;;;4954214;28;20037;-79
2022/06/11 03:08:35;;;;;;;3.30;2.33;;;18.60;95.20;;;;;;4936432;28;20343;-79
2022/06/11 03:11:00;;;;;;;6.70;2.15;;;18.60;95.30;;;;;;4966790;28;20062;-79
2022/06/11 03:13:27;;;;;;;3.75;2.22;;;18.60;95.20;;;;;;4964684;28;20467;-79
2022/06/11 03:15:53;;;;;;;4.97;1.90;;;18.50;95.50;;;;;;4957117;28;20038;-79
2022/06/11 03:18:18;;;;;;;5.80;2.33;;;18.50;95.90;;;;;;4969641;28;20034;-78
2022/06/11 03:20:44;;;;;;;6.68;2.10;;;18.40;95.80;;;;;;4953512;28;20122;-79
2022/06/11 03:23:09;;;;;;;3.88;2.30;;;18.30;96.10;;;;;;4972994;28;20038;-79
2022/06/11 03:25:35;;;;;;;5.10;2.30;;;18.30;96.60;;;;;;4971844;28;20031;-78
2022/06/11 03:28:08;;;;;;;2.95;1.70;;;18.30;96.60;;;;;;4964871;28;20057;-79
2022/06/11 03:30:34;;;;;;;4.15;1.60;;;18.30;97.50;;;;;;4950276;28;20573;-78
2022/06/11 03:32:59;;;;;;;6.15;2.05;;;18.30;97.30;;;;;;4965435;28;20066;-78
2022/06/11 03:35:25;;;;;;;2.90;1.83;;;18.20;97.60;;;;;;4965751;28;20129;-78
2022/06/11 03:37:50;;;;;;;8.15;2.63;;;18.10;98.00;;;;;;4951159;28;20125;-78
2022/06/11 03:40:16;;;;;;;5.32;2.30;;;18.10;98.50;;;;;;4963606;28;20062;-79
2022/06/11 03:42:42;;;;;;;4.05;1.92;;;18.00;98.70;;;;;;4952257;28;20049;-78
2022/06/11 03:45:08;;;;;;;5.85;1.77;;;18.00;98.90;;;;;;4967800;28;20034;-78
2022/06/11 03:47:36;;;;;;;6.00;2.03;;;18.00;99.40;;;;;;4967667;28;20034;-78
2022/06/11 03:50:03;;;;;;;5.43;2.47;;;17.90;99.20;;;;;;4953070;28;20082;-78
2022/06/11 03:52:30;;;;;;;6.78;2.85;;;17.70;99.30;;;;;;4953299;28;20109;-78
2022/06/11 03:54:56;;;;;;;5.03;1.83;;;17.70;99.50;;;;;;4969678;28;20042;-78
2022/06/11 03:57:22;;;;;;;7.72;2.70;;;17.70;99.90;;;;;;4964445;28;20039;-78
2022/06/11 03:59:48;;;;;;;6.50;2.42;;;17.60;99.90;;;;;;4968620;28;20034;-78
2022/06/11 04:02:13;;;;;;;7.30;2.90;;;17.60;99.90;;;;;;4963883;28;20027;-78
2022/06/11 04:04:39;;;;;;;5.55;2.53;;;17.70;99.90;;;;;;4966556;28;20038;-78
2022/06/11 04:07:05;;;;;;;4.60;2.70;;;17.70;99.90;;;;;;4953020;28;20038;-78
2022/06/11 04:09:42;;;;;;;6.57;2.55;;;17.90;99.90;;;;;;4956167;28;20485;-78
2022/06/11 04:12:11;;;;;;;5.63;2.15;;;18.00;99.90;;;;;;4968280;28;20038;-78
2022/06/11 04:14:38;;;;;;;3.47;2.20;;;18.10;99.90;;;;;;4966564;28;20034;-78
2022/06/11 04:17:08;;;;;;;7.63;2.00;;;18.10;99.90;;;;;;4956267;28;20039;-78
2022/06/11 04:19:36;;;;;;;7.20;2.58;;;18.20;99.60;;;;;;4971227;28;20073;-78
2022/06/11 04:22:01;;;;;;;4.75;2.17;;;18.20;99.30;;;;;;4951710;28;20512;-78
2022/06/11 04:24:27;;;;;;;5.47;2.33;;;18.20;99.90;;;;;;4946469;28;20054;-78
2022/06/11 04:26:54;;;;;;;4.20;2.50;;;18.40;99.10;;;;;;4964986;28;20128;-78
2022/06/11 04:29:20;;;;;;;3.83;2.47;;;18.50;99.20;;;;;;4966339;28;20042;-78
2022/06/11 04:31:47;;;;;;;6.25;2.10;;;18.60;99.90;;;;;;4950949;28;20043;-78
2022/06/11 04:34:13;;;;;;;4.30;2.30;;;18.80;99.50;;;;;;4956681;28;20039;-78
2022/06/11 04:36:39;;;;;;;3.03;2.03;;;18.90;99.00;;;;;;4951227;28;20027;-78
2022/06/11 04:39:06;;;;;;;5.07;2.45;;;19.10;98.80;;;;;;4951834;28;20121;-78
2022/06/11 04:41:31;;;;;;;7.95;2.50;;;19.30;99.50;;;;;;4949556;28;20031;-78
2022/06/11 04:43:57;;;;;;;6.85;2.35;;;19.40;99.20;;;;;;4951109;28;20035;-78
2022/06/11 04:46:22;;;;;;;3.97;1.60;;;19.60;98.70;;;;;;4948794;28;20067;-78
2022/06/11 04:48:48;;;;;;;2.92;1.65;;;19.80;97.20;;;;;;4962216;28;20455;-78
2022/06/11 04:51:14;;;;;;;4.78;2.25;;;19.90;98.00;;;;;;4965001;28;20023;-78
2022/06/11 04:53:42;;;;;;;3.53;1.80;;;20.10;97.10;;;;;;4950370;28;20122;-78
2022/06/11 04:56:07;;;;;;;5.07;1.83;;;20.30;96.80;;;;;;4953809;28;20058;-78
2022/06/11 04:58:33;;;;;;;4.45;2.10;;;20.50;97.90;;;;;;4972697;28;20116;-78
2022/06/11 05:00:59;;;;;;;9.23;3.08;;;20.70;97.00;;;;;;4957909;28;20137;-78
2022/06/11 05:03:25;;;;;;;5.10;2.00;;;21.00;98.30;;;;;;4971087;28;20438;-78
2022/06/11 05:05:50;;;;;;;6.47;2.55;;;21.20;98.50;;;;;;4969625;28;20697;-78
2022/06/11 05:08:16;;;;;;;7.40;4.13;;;21.50;98.70;;;;;;4959818;28;20035;-78
2022/06/11 05:10:43;;;;;;;6.82;3.35;;;21.70;98.70;;;;;;4956848;28;20050;-78
2022/06/11 05:13:09;;;;;;;4.03;2.90;;;21.90;98.60;;;;;;4970920;28;20031;-78
2022/06/11 05:15:37;;;;;;;5.70;3.30;;;22.10;98.10;;;;;;4948559;28;20043;-78
2022/06/11 05:18:03;;;;;;;12.32;3.53;;;22.40;97.30;;;;;;4962734;28;20046;-78
2022/06/11 05:20:28;;;;;;;8.32;3.33;;;22.50;98.20;;;;;;4966027;28;20395;-78
2022/06/11 05:22:54;;;;;;;5.05;2.22;;;22.80;98.10;;;;;;4971137;28;20045;-78
2022/06/11 05:25:20;;;;;;;4.15;2.00;;;22.90;97.70;;;;;;4950353;28;20387;-78
2022/06/11 05:27:46;;;;;;;4.88;1.92;;;23.10;97.70;;;;;;4950703;28;20039;-78
2022/06/11 05:30:26;;;;;;;8.80;3.08;;;23.40;97.70;;;;;;4964929;28;20034;-79
2022/06/11 05:32:52;;;;;;;6.68;2.42;;;23.70;97.70;;;;;;4969000;28;20031;-79
2022/06/11 05:35:21;;;;;;;3.80;1.90;;;23.80;97.10;;;;;;4964764;28;20065;-78
2022/06/11 05:37:47;;;;;;;6.85;2.33;;;23.70;96.80;;;;;;4968561;28;20042;-79
2022/06/11 05:40:15;;;;;;;6.40;2.35;;;23.70;96.60;;;;;;4966289;28;20081;-78
2022/06/11 05:42:40;;;;;;;7.72;2.20;;;23.80;96.40;;;;;;4964205;28;20442;-79
2022/06/11 05:45:07;;;;;;;6.35;2.20;;;23.90;96.20;;;;;;4950794;28;20088;-79
2022/06/11 05:47:32;;;;;;;7.65;2.33;;;23.90;95.60;;;;;;4927659;28;20109;-79
2022/06/11 05:49:59;;;;;;;4.75;2.03;;;23.70;95.70;;;;;;4952053;28;20035;-79
2022/06/11 05:52:27;;;;;;;3.80;2.00;;;23.50;95.50;;;;;;4963764;28;20042;-79
2022/06/11 05:54:53;;;;;;;6.40;2.28;;;23.50;95.40;;;;;;4969600;28;20038;-79
2022/06/11 05:57:20;;;;;;;5.28;1.98;;;23.30;95.40;;;;;;4947703;28;20576;-79
2022/06/11 05:59:48;;;;;;;8.25;2.53;;;23.20;95.20;;;;;;4949934;28;20058;-79
2022/06/11 06:02:16;;;;;;;5.75;2.10;;;23.00;94.80;;;;;;4949203;28;20790;-79
2022/06/11 06:04:42;;;;;;;4.32;2.03;;;22.90;95.10;;;;;;4965067;28;20447;-79
2022/06/11 06:07:07;;;;;;;4.10;1.63;;;22.90;95.20;;;;;;4954960;28;20039;-79
2022/06/11 06:09:33;;;;;;;4.15;2.08;;;22.80;94.90;;;;;;4952295;28;20399;-79
2022/06/11 06:11:58;;;;;;;9.35;1.98;;;22.60;95.20;;;;;;4965564;28;20035;-79
2022/06/11 06:14:24;;;;;;;6.10;2.10;;;22.60;95.20;;;;;;4950040;28;20038;-79
2022/06/11 06:16:50;;;;;;;4.60;1.77;;;22.60;95.10;;;;;;4969445;28;20054;-79
2022/06/11 06:19:15;;;;;;;3.22;1.92;;;22.60;95.30;;;;;;4967075;28;20261;-79
2022/06/11 06:21:41;;;;;;;4.18;2.08;;;22.60;95.20;;;;;;4962953;28;20035;-79
2022/06/11 06:24:07;;;;;;;4.90;2.25;;;22.50;95.20;;;;;;4950405;28;20039;-79
2022/06/11 06:26:32;;;;;;;5.57;2.55;;;22.60;95.20;;;;;;4951221;28;20035;-79
2022/06/11 06:28:58;;;;;;;5.93;2.70;;;22.40;95.00;;;;;;4950123;28;20529;-79
2022/06/11 06:31:24;;;;;;;4.93;2.78;;;22.50;95.40;;;;;;4966359;28;20036;-78
2022/06/11 06:33:51;;;;;;;3.85;2.00;;;22.60;95.40;;;;;;4966039;28;20039;-79
2022/06/11 06:36:17;;;;;;;4.57;2.33;;;22.60;94.90;;;;;;4953040;28;20089;-79
2022/06/11 06:38:43;;;;;;;6.47;2.20;;;22.60;95.10;;;;;;4967702;28;20061;-79
2022/06/11 06:41:08;;;;;;;4.65;2.25;;;22.40;95.30;;;;;;4971815;28;20316;-79
2022/06/11 06:43:34;;;;;;;4.40;1.95;;;22.50;95.40;;;;;;4954049;28;20035;-79
2022/06/11 06:46:00;;;;;;;4.60;1.80;;;22.50;95.20;;;;;;4952907;28;20039;-79
2022/06/11 06:48:26;;;;;;;3.40;1.88;;;22.60;94.90;;;;;;4967046;28;20403;-79
2022/06/11 06:50:53;;;;;;;6.50;2.55;;;22.70;94.80;;;;;;4954284;28;20039;-79
2022/06/11 06:53:19;;;;;;;8.40;2.63;;;22.40;94.50;;;;;;4973253;28;20071;-78
2022/06/11 06:55:44;;;;;;;6.85;2.60;;;22.30;95.30;;;;;;4948745;28;20054;-79
2022/06/11 06:58:10;;;;;;;4.68;2.33;;;22.60;95.80;;;;;;4965318;28;20031;-79
2022/06/11 07:00:36;;;;;;;6.03;2.40;;;22.80;95.10;;;;;;4967710;28;20039;-79
2022/06/11 07:03:01;;;;;;;5.03;3.05;;;22.60;95.00;;;;;;4953777;28;20034;-79
2022/06/11 07:05:27;;;;;;;6.55;2.88;;;22.70;94.90;;;;;;4951377;28;20035;-79
2022/06/11 07:07:53;;;;;;;3.88;2.10;;;23.10;95.10;;;;;;4955116;28;20034;-79
2022/06/11 07:10:23;;;;;;;3.28;2.17;;;23.20;94.70;;;;;;4948752;28;20446;-79
2022/06/11 07:12:49;;;;;;;9.65;2.40;;;23.30;95.30;;;;;;4966042;28;20450;-79
2022/06/11 07:15:15;;;;;;;6.95;2.05;;;23.90;95.60;;;;;;4967344;28;20038;-79
2022/06/11 07:17:44;;;;;;;6.80;2.35;;;24.30;95.20;;;;;;4952082;28;20121;-79
2022/06/11 07:20:20;;;;;;;5.22;2.00;;;24.30;93.30;;;;;;4968714;28;20045;-79
2022/06/11 07:22:49;;;;;;;6.03;2.08;;;24.50;93.80;;;;;;4972420;28;20088;-79
2022/06/11 07:25:15;;;;;;;8.43;3.13;;;24.50;94.00;;;;;;4971383;28;20483;-79
2022/06/11 07:27:44;;;;;;;4.60;1.52;;;24.70;93.70;;;;;;4954028;28;20078;-79
2022/06/11 07:30:13;;;;;;;7.90;2.20;;;24.70;93.60;;;;;;4953202;28;20080;-79
2022/06/11 07:32:39;;;;;;;1.98;1.38;;;24.80;92.60;;;;;;4934880;28;20035;-80
2022/06/11 07:35:05;;;;;;;7.75;2.13;;;24.60;92.60;;;;;;4976085;28;20565;-80
2022/06/11 07:37:32;;;;;;;4.15;2.03;;;24.40;92.90;;;;;;4953171;28;20038;-80
2022/06/11 07:39:57;;;;;;;5.60;2.50;;;24.60;92.80;;;;;;4968153;28;20042;-80
2022/06/11 07:42:24;;;;;;;5.68;3.83;;;24.70;92.80;;;;;;4953327;28;20022;-80
2022/06/11 07:44:49;;;;;;;7.00;4.22;;;25.10;92.90;;;;;;4950516;28;20046;-80
2022/06/11 07:47:53;;;;;;;4.63;2.60;;;25.20;92.60;;;;;;4949603;28;20030;-81
2022/06/11 07:50:01;;;;;;;3.60;2.47;;;25.40;92.30;;;;;;4965146;28;20074;-80
2022/06/11 07:52:26;;;;;;;8.88;3.95;;;25.50;92.00;;;;;;4967263;28;20058;-80
2022/06/11 07:54:52;;;;;;;3.78;2.40;;;25.50;92.10;;;;;;4956324;28;20544;-80
2022/06/11 07:57:18;;;;;;;7.03;2.90;;;25.20;91.90;;;;;;4952934;28;20053;-80
2022/06/11 07:59:44;;;;;;;4.03;2.53;;;25.50;92.30;;;;;;4953570;28;20043;-80
2022/06/11 08:02:09;;;;;;;5.68;3.00;;;25.70;91.70;;;;;;4952547;28;20038;-80
2022/06/11 08:04:35;;;;;;;5.05;2.70;;;25.90;91.60;;;;;;4969042;28;20042;-81
2022/06/11 08:07:01;;;;;;;7.70;3.53;;;26.10;91.50;;;;;;4966662;28;20049;-80
2022/06/11 08:09:27;;;;;;;8.80;4.25;;;25.90;91.00;;;;;;4953935;28;20030;-80
2022/06/11 08:11:52;;;;;;;7.13;4.18;;;26.10;92.30;;;;;;4967273;28;20035;-81
2022/06/11 08:14:18;;;;;;;5.25;3.22;;;26.50;92.20;;;;;;4935951;28;20042;-81
2022/06/11 08:16:44;;;;;;;3.55;2.80;;;26.50;91.60;;;;;;4968516;28;20045;-81
2022/06/11 08:19:09;;;;;;;4.93;3.13;;;26.80;91.40;;;;;;4966796;28;20054;-81
2022/06/11 08:21:35;;;;;;;7.80;3.40;;;26.20;88.60;;;;;;4950142;28;20047;-81
2022/06/11 08:24:00;;;;;;;10.15;3.33;;;26.50;88.70;;;;;;4963317;28;20039;-82
2022/06/11 08:26:27;;;;;;;4.72;3.17;;;27.10;90.60;;;;;;4965569;28;20395;-82
2022/06/11 08:28:52;;;;;;;5.55;2.90;;;27.30;90.40;;;;;;4948773;28;20038;-82
2022/06/11 08:31:18;;;;;;;6.47;3.60;;;27.40;88.40;;;;;;4949854;28;20027;-82
2022/06/11 08:33:44;;;;;;;3.50;2.53;;;27.70;89.80;;;;;;4951063;28;20038;-83
2022/06/11 08:36:09;;;;;;;5.20;3.20;;;27.80;88.40;;;;;;4956667;28;20042;-82
2022/06/11 08:38:35;;;;;;;6.90;3.10;;;27.50;85.90;;;;;;4953491;28;20082;-83
2022/06/11 08:41:01;;;;;;;5.88;3.53;;;27.30;86.10;;;;;;4969261;28;20439;-83
2022/06/11 08:43:41;;;;;;;3.72;2.60;;;27.30;89.10;;;;;;4957117;28;20023;-83
2022/06/11 08:46:06;;;;;;;5.65;2.95;;;27.40;86.80;;;;;;4936845;28;20038;-83
2022/06/11 08:48:54;;;;;;;7.63;3.53;;;27.10;89.80;;;;;;4972570;28;20483;-83
2022/06/11 08:51:44;;;;;;;8.90;3.20;;;27.50;86.50;;;;;;4954848;28;20035;-83
2022/06/11 08:54:18;;;;;;;6.72;3.70;;;26.70;86.30;;;;;;4957077;28;20450;-83
2022/06/11 08:57:06;;;;;;;6.70;3.38;;;27.10;86.30;;;;;;4952663;28;20058;-84
2022/06/11 09:00:05;;;;;;;4.65;3.10;;;28.80;87.60;;;;;;4963860;28;20058;-84
2022/06/11 09:02:57;;;;;;;6.68;3.15;;;28.60;83.60;;;;;;4968546;28;20027;-84
2022/06/11 09:05:48;;;;;;;4.80;3.13;;;28.80;83.00;;;;;;4952239;28;20042;-85
2022/06/11 09:08:25;;;;;;;4.65;2.35;;;29.20;86.00;;;;;;4933508;28;20031;-86
2022/06/11 09:11:20;;;;;;;7.85;2.63;;;29.70;85.30;;;;;;4966177;28;20092;-85
2022/06/11 09:13:58;;;;;;;6.13;3.40;;;30.20;81.20;;;;;;4954411;28;20126;-86
2022/06/11 09:16:46;;;;;;;4.75;2.10;;;29.50;79.70;;;;;;4968572;28;20402;-86
2022/06/11 09:19:22;;;;;;;5.95;2.30;;;30.10;82.80;;;;;;4946625;28;20673;-86
2022/06/11 09:22:26;;;;;;;5.95;2.60;;;30.60;77.90;;;;;;4935549;28;20035;-86
2022/06/11 09:24:55;;;;;;;3.83;2.80;;;30.60;78.60;;;;;;4967342;28;20038;-86
2022/06/11 09:27:40;;;;;;;7.50;2.78;;;30.70;77.70;;;;;;4968170;28;20039;-86
2022/06/11 09:30:08;;;;;;;5.40;2.30;;;30.90;78.00;;;;;;4961647;28;20090;-86
2022/06/11 09:32:48;;;;;;;10.50;2.40;;;30.50;77.10;;;;;;4964454;28;20867;-86
2022/06/11 09:35:36;;;;;;;3.40;2.10;;;30.60;77.10;;;;;;4947898;28;20054;-86
2022/06/11 09:38:19;;;;;;;5.55;2.10;;;30.60;78.90;;;;;;4964383;28;20106;-86
2022/06/11 09:40:50;;;;;;;3.85;2.45;;;29.90;75.90;;;;;;4967346;28;20123;-86
2022/06/11 09:43:30;;;;;;;3.42;2.13;;;30.20;76.20;;;;;;4948066;28;20120;-85
2022/06/11 09:46:05;;;;;;;4.22;1.88;;;30.70;79.00;;;;;;4982580;28;20547;-84
2022/06/11 09:48:37;;;;;;;3.53;1.95;;;31.40;76.10;;;;;;4949950;28;20039;-84
2022/06/11 09:51:06;;;;;;;2.10;1.88;;;31.80;76.20;;;;;;4966776;28;20559;-84
2022/06/11 09:53:55;;;;;;;5.32;2.38;;;31.80;74.40;;;;;;4979716;28;20034;-83
2022/06/11 09:56:33;;;;;;;4.18;2.10;;;32.10;73.60;;;;;;4958771;28;20053;-82
2022/06/11 09:59:12;;;;;;;4.25;2.08;;;32.40;72.30;;;;;;4961045;28;20042;-81
2022/06/11 10:01:48;;;;;;;4.65;1.92;;;32.00;73.90;;;;;;4946168;28;20038;-80
2022/06/11 10:04:14;;;;;;;4.07;1.70;;;32.40;72.90;;;;;;4965879;28;20035;-79
2022/06/11 10:06:41;;;;;;;4.38;1.85;;;32.30;72.80;;;;;;4963934;28;20042;-79
2022/06/11 10:09:17;;;;;;;3.50;2.10;;;31.60;70.20;;;;;;4972779;28;20089;-80
2022/06/11 10:11:48;;;;;;;6.53;3.10;;;31.00;71.60;;;;;;4954094;28;20034;-79
2022/06/11 10:14:42;;;;;;;4.13;1.70;;;31.70;72.70;;;;;;4954937;28;20037;-79
2022/06/11 10:17:40;;;;;;;4.07;1.90;;;32.40;69.90;;;;;;4972591;28;20090;-79
2022/06/11 10:20:34;;;;;;;5.68;1.95;;;32.80;70.00;;;;;;4967627;28;20050;-79
2022/06/11 10:23:08;;;;;;;2.42;1.60;;;32.80;70.10;;;;;;4968872;28;20049;-79
2022/06/11 10:25:39;;;;;;;3.95;1.90;;;32.20;70.90;;;;;;4969892;28;20034;-78
2022/06/11 10:28:17;;;;;;;5.78;3.08;;;32.90;70.60;;;;;;4971903;28;20038;-78
2022/06/11 10:30:55;;;;;;;3.75;1.98;;;33.90;67.50;;;;;;4956709;28;20406;-79
2022/06/11 10:33:53;;;;;;;5.40;2.05;;;34.20;65.80;;;;;;4952843;28;20031;-78
2022/06/11 10:36:26;;;;;;;3.03;1.95;;;34.10;67.30;;;;;;4967802;28;20031;-78
2022/06/11 10:38:54;;;;;;;4.65;2.42;;;34.10;66.80;;;;;;4970777;28;20034;-78
2022/06/11 10:41:41;;;;;;;4.30;2.60;;;34.30;65.00;;;;;;4965040;28;20114;-78
2022/06/11 10:44:18;;;;;;;3.33;2.15;;;34.80;63.20;;;;;;4971471;28;20033;-78
2022/06/11 10:46:44;;;;;;;6.05;2.83;;;35.00;62.60;;;;;;4963043;28;20503;-78
2022/06/11 10:49:14;;;;;;;2.40;2.17;;;35.00;60.80;;;;;;4951236;28;20038;-78
2022/06/11 10:51:40;;;;;;;5.13;2.33;;;34.80;61.80;;;;;;4936154;28;20529;-78
2022/06/11 10:54:20;;;;;;;3.97;1.77;;;33.90;62.90;;;;;;4967885;28;20055;-78
2022/06/11 10:56:55;;;;;;;2.17;1.90;;;34.60;63.10;;;;;;4967903;28;20051;-77
2022/06/11 10:59:33;;;;;;;3.33;1.70;;;34.50;60.90;;;;;;4951871;28;20061;-77
2022/06/11 11:02:03;;;;;;;3.78;2.05;;;34.20;61.50;;;;;;4933556;28;20077;-77
2022/06/11 11:04:43;;;;;;;3.33;2.03;;;34.20;61.80;;;;;;4951297;28;20035;-78
2022/06/11 11:07:18;;;;;;;4.13;2.20;;;34.20;62.00;;;;;;4967686;28;20109;-78
2022/06/11 11:09:43;;;;;;;1.73;1.60;;;34.30;61.90;;;;;;4968128;28;20039;-78
2022/06/11 11:12:23;;;;;;;1.73;1.63;;;34.40;60.70;;;;;;4957820;28;20450;-78
2022/06/11 11:14:57;;;;;;;2.78;2.00;;;34.50;60.50;;;;;;4972400;28;20631;-78
2022/06/11 11:17:24;;;;;;;2.85;1.75;;;34.60;61.40;;;;;;4983618;28;20030;-77
2022/06/11 11:22:40;;;;;;;2.50;2.20;;;35.40;60.30;;;;;;4973202;28;20122;-78
2022/06/11 11:25:13;;;;;;;2.38;2.08;;;35.10;59.60;;;;;;4970440;28;20035;-78
2022/06/11 11:27:44;;;;;;;4.75;2.63;;;35.60;59.90;;;;;;4952404;28;20053;-78
2022/06/11 11:30:15;;;;;;;7.28;2.97;;;36.00;59.00;;;;;;4952717;28;20482;-78
2022/06/11 11:32:42;;;;;;;3.45;2.72;;;36.00;57.80;;;;;;4971325;28;20034;-78
2022/06/11 11:35:26;;;;;;;6.00;2.80;;;36.30;57.30;;;;;;4815754;28;10000842;-78
2022/06/11 11:38:03;;;;;;;5.18;2.03;;;36.40;56.00;;;;;;4968061;28;20273;-78
2022/06/11 11:40:36;;;;;;;18.25;5.05;;;36.30;56.60;;;;;;4965358;28;20035;-78
2022/06/11 11:43:10;;;;;;;4.70;1.85;;;36.00;55.80;;;;;;4930338;28;20049;-78
2022/06/11 11:45:59;;;;;;;4.68;1.77;;;35.80;56.00;;;;;;4953274;28;20039;-78
2022/06/11 11:48:32;;;;;;;6.15;1.90;;;35.40;56.90;;;;;;4952520;28;20557;-77
2022/06/11 11:51:05;;;;;;;2.65;1.55;;;34.70;56.30;;;;;;4964372;28;20402;-77
2022/06/11 11:54:11;;;;;;;4.18;2.22;;;34.80;57.90;;;;;;4962360;28;20042;-77
2022/06/11 11:56:52;;;;;;;17.58;4.30;;;35.20;57.30;;;;;;4938792;28;20039;-77
2022/06/11 11:59:25;;;;;;;4.90;1.83;;;35.50;57.10;;;;;;4946782;28;20465;-78
2022/06/11 12:01:52;;;;;;;6.25;2.00;;;35.40;56.80;;;;;;4966202;28;20035;-78
2022/06/11 12:04:24;;;;;;;5.85;2.45;;;35.30;56.50;;;;;;4970571;28;20049;-77
2022/06/11 12:06:55;;;;;;;6.53;2.30;;;35.40;56.20;;;;;;4947363;28;20069;-78
2022/06/11 12:09:32;;;;;;;4.80;1.73;;;35.80;54.70;;;;;;4948482;28;20062;-78
2022/06/11 12:12:18;;;;;;;3.10;2.00;;;36.00;54.90;;;;;;4964478;28;20056;-77
2022/06/11 12:14:51;;;;;;;1.73;1.60;;;35.90;56.10;;;;;;4948279;28;20066;-77
2022/06/11 12:17:19;;;;;;;4.22;2.03;;;35.90;55.70;;;;;;4948790;28;20105;-79
2022/06/11 12:19:48;;;;;;;3.60;2.13;;;36.20;54.90;;;;;;4949115;28;20439;-78
2022/06/11 12:22:22;;;;;;;8.00;2.33;;;36.50;53.20;;;;;;4952107;28;20023;-77
2022/06/11 12:24:49;;;;;;;5.68;2.60;;;36.50;52.80;;;;;;4967313;28;20038;-78
2022/06/11 12:27:36;;;;;;;4.10;2.65;;;36.40;54.00;;;;;;4954487;28;20418;-77
2022/06/11 12:30:04;;;;;;;4.60;2.20;;;36.50;53.10;;;;;;4967412;28;20027;-78
2022/06/11 12:32:31;;;;;;;2.88;1.60;;;36.60;53.20;;;;;;4951526;28;20037;-78
2022/06/11 12:34:56;;;;;;;2.85;1.73;;;36.50;53.60;;;;;;4951813;28;20034;-78
2022/06/11 12:37:38;;;;;;;5.72;2.10;;;36.50;53.30;;;;;;4950077;28;20035;-78
2022/06/11 12:40:23;;;;;;;3.97;1.80;;;36.00;53.60;;;;;;4969492;28;20038;-78
2022/06/11 12:42:58;;;;;;;4.55;1.73;;;35.90;52.80;;;;;;4968313;28;20034;-77
2022/06/11 12:45:37;;;;;;;2.65;1.50;;;35.80;54.10;;;;;;4968684;28;20141;-77
2022/06/11 12:48:19;;;;;;;68.50;8.50;;;36.10;54.10;;;;;;4965308;28;20041;-77
2022/06/11 12:51:03;;;;;;;4.07;1.92;;;36.00;53.70;;;;;;4953704;28;20034;-78
2022/06/11 12:53:40;;;;;;;3.03;2.03;;;36.20;54.20;;;;;;4954439;28;20046;-77
2022/06/11 12:56:43;;;;;;;3.33;1.65;;;36.70;53.70;;;;;;4980798;28;20039;-77
2022/06/11 12:59:18;;;;;;;5.68;1.70;;;37.10;53.10;;;;;;4969395;28;20200;-77
2022/06/11 13:02:12;;;;;;;2.90;1.55;;;37.20;52.10;;;;;;4971098;28;20037;-77
2022/06/11 13:04:48;;;;;;;4.45;1.50;;;37.50;51.40;;;;;;4960341;28;20090;-78
2022/06/11 13:07:35;;;;;;;3.38;1.70;;;37.20;50.30;;;;;;4965210;28;20037;-76
2022/06/11 13:10:20;;;;;;;2.63;1.38;;;37.00;51.50;;;;;;4960265;28;20039;-79
2022/06/11 13:12:57;;;;;;;3.87;1.43;;;37.00;51.60;;;;;;4966872;28;20121;-76
2022/06/11 13:15:41;;;;;;;1.92;1.30;;;37.00;50.60;;;;;;4966814;28;20054;-77